Time;durP1;ratioP1;P1;durP2;ratioP2;P2;SDS_P1;SDS_P2;PMS_P1;PMS_P2;Temp;Humidity;BMP_temperature;BMP_pressure;BME280_temperature;BME280_humidity;BME280_pressure;Samples;Min_cycle;Max_cycle;Signal;HPM_P1;HPM_P2
2024/02/22 00:02:21;;;;;;;16.65;7.78;;;;;;;8.01;94.50;100351.38;5093022;28;20140;-44
2024/02/22 00:04:49;;;;;;;15.63;7.03;;;;;;;7.90;94.87;100348.34;5093154;28;20441;-45
2024/02/22 00:07:19;;;;;;;14.52;7.07;;;;;;;7.94;95.53;100344.63;5093823;28;20044;-46
2024/02/22 00:09:48;;;;;;;15.57;7.15;;;;;;;7.93;95.02;100339.41;5093825;28;20082;-46
2024/02/22 00:12:16;;;;;;;15.10;6.97;;;;;;;7.97;95.38;100349.78;5093414;28;20139;-46
2024/02/22 00:14:45;;;;;;;17.25;6.80;;;;;;;7.92;95.42;100341.22;5093252;28;20131;-46
2024/02/22 00:17:13;;;;;;;15.02;6.47;;;;;;;7.98;94.37;100348.00;5093461;28;20082;-45
2024/02/22 00:19:41;;;;;;;14.30;6.72;;;;;;;7.97;94.42;100349.78;5093270;28;20048;-45
2024/02/22 00:22:10;;;;;;;16.10;7.07;;;;;;;7.99;94.00;100347.06;5093043;28;20044;-44
2024/02/22 00:24:40;;;;;;;15.60;6.85;;;;;;;7.94;94.24;100347.28;5092857;28;20048;-45
2024/02/22 00:27:10;;;;;;;18.67;6.95;;;;;;;7.80;94.94;100347.06;5092870;28;20093;-44
2024/02/22 00:29:39;;;;;;;17.70;7.07;;;;;;;7.82;95.29;100342.56;5092489;28;20645;-44
2024/02/22 00:32:09;;;;;;;15.25;6.88;;;;;;;7.74;96.53;100342.94;5092715;28;20045;-45
2024/02/22 00:34:37;;;;;;;14.13;6.47;;;;;;;7.68;96.13;100345.00;5092784;28;20044;-46
2024/02/22 00:37:06;;;;;;;13.25;6.32;;;;;;;7.72;97.54;100339.50;5092485;28;20044;-45
2024/02/22 00:39:34;;;;;;;12.88;6.65;;;;;;;7.65;97.39;100342.50;5092550;28;20048;-45
2024/02/22 00:42:05;;;;;;;17.10;6.45;;;;;;;7.49;100.00;100337.03;5092453;28;20056;-46
2024/02/22 00:44:34;;;;;;;14.75;6.72;;;;;;;7.55;99.80;100327.94;5092639;28;20101;-46
2024/02/22 00:47:02;;;;;;;14.65;7.07;;;;;;;7.50;99.47;100321.97;5092106;28;20126;-45
2024/02/22 00:49:31;;;;;;;14.77;7.18;;;;;;;7.42;100.00;100319.66;5092453;28;20044;-47
2024/02/22 00:51:59;;;;;;;15.02;7.38;;;;;;;7.30;100.00;100299.88;5092201;28;20052;-44
2024/02/22 00:54:28;;;;;;;15.63;7.00;;;;;;;7.32;100.00;100300.66;5092090;28;20058;-44
2024/02/22 00:56:56;;;;;;;16.77;7.32;;;;;;;7.41;100.00;100288.75;5092008;28;20040;-44
2024/02/22 00:59:31;;;;;;;14.80;7.63;;;;;;;7.43;100.00;100290.41;5091975;28;20067;-43
2024/02/22 01:02:00;;;;;;;15.52;7.47;;;;;;;7.45;100.00;100272.63;5092062;28;20063;-45
2024/02/22 01:04:28;;;;;;;15.70;7.65;;;;;;;7.52;100.00;100270.53;5091916;28;20150;-45
2024/02/22 01:06:59;;;;;;;15.93;7.55;;;;;;;7.39;100.00;100256.97;5092133;28;20036;-45
2024/02/22 01:09:27;;;;;;;15.20;7.57;;;;;;;7.38;100.00;100257.91;5091689;28;20044;-45
2024/02/22 01:11:55;;;;;;;18.13;6.88;;;;;;;7.38;100.00;100260.56;5092044;28;20413;-45
2024/02/22 01:14:25;;;;;;;14.52;7.72;;;;;;;7.37;100.00;100255.34;5091766;28;20497;-44
2024/02/22 01:16:54;;;;;;;13.10;6.90;;;;;;;7.37;100.00;100250.03;5091789;28;20060;-44
2024/02/22 01:19:22;;;;;;;19.38;7.40;;;;;;;7.41;100.00;100247.16;5091763;28;20108;-46
2024/02/22 01:21:51;;;;;;;14.73;6.97;;;;;;;7.32;100.00;100242.25;5091659;28;20493;-44
2024/02/22 01:24:19;;;;;;;13.85;6.75;;;;;;;7.32;100.00;100234.31;5092200;28;20055;-43
2024/02/22 01:26:48;;;;;;;13.07;6.75;;;;;;;7.33;100.00;100236.03;5092113;28;20412;-45
2024/02/22 01:29:16;;;;;;;13.65;6.10;;;;;;;7.34;100.00;100229.81;5092635;28;20052;-46
2024/02/22 01:31:46;;;;;;;13.30;6.28;;;;;;;7.17;100.00;100229.75;5094992;28;20413;-45
2024/02/22 01:34:14;;;;;;;15.18;6.45;;;;;;;7.17;100.00;100225.28;5091408;28;20130;-45
2024/02/22 01:36:43;;;;;;;15.23;6.25;;;;;;;7.20;100.00;100221.63;5091578;28;20071;-44
2024/02/22 01:39:12;;;;;;;14.20;5.95;;;;;;;7.26;100.00;100213.41;5091751;28;20048;-45
2024/02/22 01:41:40;;;;;;;14.43;5.88;;;;;;;7.32;100.00;100217.53;5091202;28;20058;-45
2024/02/22 01:44:09;;;;;;;16.85;6.47;;;;;;;7.28;100.00;100215.97;5091421;28;20128;-44
2024/02/22 01:46:38;;;;;;;10.68;5.68;;;;;;;7.33;100.00;100214.81;5091155;28;20055;-45
2024/02/22 01:49:08;;;;;;;11.55;5.90;;;;;;;7.32;100.00;100213.09;5091085;28;20083;-44
2024/02/22 01:51:37;;;;;;;13.63;6.65;;;;;;;7.40;100.00;100210.06;5091453;28;20060;-45
2024/02/22 01:54:05;;;;;;;10.43;6.05;;;;;;;7.40;100.00;100213.59;5090797;28;20059;-46
2024/02/22 01:56:34;;;;;;;14.48;6.50;;;;;;;7.35;100.00;100220.06;5091183;28;20083;-45
2024/02/22 01:59:02;;;;;;;13.65;6.25;;;;;;;7.32;100.00;100222.84;5091641;28;20079;-45
2024/02/22 02:01:34;;;;;;;14.05;6.30;;;;;;;7.06;100.00;100222.28;5090913;28;20048;-47
2024/02/22 02:04:03;;;;;;;11.95;5.70;;;;;;;7.02;100.00;100218.03;5091166;28;20048;-45
2024/02/22 02:06:32;;;;;;;11.38;5.82;;;;;;;7.13;100.00;100212.22;5091024;28;20048;-44
2024/02/22 02:09:02;;;;;;;11.27;5.78;;;;;;;7.02;100.00;100211.88;5091012;28;20052;-47
2024/02/22 02:11:32;;;;;;;13.10;5.75;;;;;;;7.13;100.00;100212.22;5090140;28;20148;-44
2024/02/22 02:14:00;;;;;;;14.05;5.88;;;;;;;7.05;100.00;100198.50;5090899;28;20052;-45
2024/02/22 02:16:29;;;;;;;14.25;6.00;;;;;;;6.98;100.00;100191.75;5091018;28;20066;-46
2024/02/22 02:18:57;;;;;;;12.43;5.50;;;;;;;6.85;100.00;100192.31;5090746;28;20478;-45
2024/02/22 02:21:31;;;;;;;11.52;6.05;;;;;;;6.93;100.00;100193.72;5090835;28;20052;-44
2024/02/22 02:24:22;;;;;;;11.52;5.85;;;;;;;6.76;100.00;100184.78;5090794;28;20058;-45
2024/02/22 02:26:53;;;;;;;15.07;5.47;;;;;;;6.80;100.00;100189.00;5091004;28;20048;-45
2024/02/22 02:29:21;;;;;;;13.30;5.53;;;;;;;6.71;100.00;100173.50;5090684;28;20140;-45
2024/02/22 02:31:50;;;;;;;12.88;5.93;;;;;;;6.78;100.00;100179.41;5090801;28;20496;-45
2024/02/22 02:34:19;;;;;;;15.73;5.40;;;;;;;6.77;100.00;100178.53;5090664;28;20063;-46
2024/02/22 02:36:47;;;;;;;11.82;5.07;;;;;;;6.74;100.00;100169.84;5090407;28;20040;-44
2024/02/22 02:39:16;;;;;;;15.50;5.57;;;;;;;6.71;100.00;100172.66;5090480;28;20496;-45
2024/02/22 02:41:44;;;;;;;11.40;5.35;;;;;;;6.77;100.00;100156.47;5090615;28;20434;-45
2024/02/22 02:44:14;;;;;;;15.07;5.45;;;;;;;6.78;100.00;100169.66;5090788;28;20044;-48
2024/02/22 02:46:43;;;;;;;10.23;4.97;;;;;;;6.80;100.00;100173.09;5090580;28;20044;-46
2024/02/22 02:49:11;;;;;;;10.15;5.43;;;;;;;6.70;100.00;100176.22;5090385;28;20594;-45
2024/02/22 02:51:39;;;;;;;11.15;5.20;;;;;;;6.72;100.00;100175.22;5090403;28;20048;-44
2024/02/22 02:54:08;;;;;;;11.75;4.95;;;;;;;6.81;100.00;100174.81;5090405;28;20095;-45
2024/02/22 02:56:36;;;;;;;12.20;5.22;;;;;;;6.83;100.00;100172.06;5089866;28;20056;-45
2024/02/22 02:59:05;;;;;;;11.57;5.07;;;;;;;6.89;100.00;100162.06;5090332;28;20451;-45
2024/02/22 03:01:36;;;;;;;11.40;4.95;;;;;;;6.72;100.00;100161.97;5090386;28;20504;-45
2024/02/22 03:04:05;;;;;;;12.77;5.35;;;;;;;6.77;100.00;100157.34;5090531;28;20459;-44
2024/02/22 03:06:33;;;;;;;15.70;5.78;;;;;;;6.72;100.00;100154.00;5090402;28;20040;-45
2024/02/22 03:09:01;;;;;;;10.50;5.30;;;;;;;6.82;100.00;100159.75;5090806;28;20054;-45
2024/02/22 03:11:30;;;;;;;11.55;5.45;;;;;;;6.90;100.00;100157.63;5090512;28;20055;-46
2024/02/22 03:14:01;;;;;;;13.30;5.60;;;;;;;6.83;100.00;100157.03;5090535;28;20075;-44
2024/02/22 03:16:30;;;;;;;12.95;5.57;;;;;;;6.72;100.00;100146.06;5091850;28;20048;-45
2024/02/22 03:18:59;;;;;;;11.63;5.28;;;;;;;6.67;100.00;100137.47;5092369;28;20048;-45
2024/02/22 03:21:28;;;;;;;11.02;5.15;;;;;;;6.62;100.00;100143.91;5090359;28;20048;-44
2024/02/22 03:23:57;;;;;;;10.40;4.88;;;;;;;6.65;100.00;100123.41;5094018;28;20048;-45
2024/02/22 03:26:25;;;;;;;14.18;5.43;;;;;;;6.58;100.00;100135.25;5093994;28;20082;-45
2024/02/22 03:28:53;;;;;;;13.60;5.90;;;;;;;6.58;100.00;100129.94;5094059;28;20044;-45
2024/02/22 03:31:22;;;;;;;12.07;5.47;;;;;;;6.57;100.00;100122.94;5093794;28;20046;-44
2024/02/22 03:33:51;;;;;;;14.23;5.70;;;;;;;6.53;100.00;100121.34;5094243;28;20450;-45
2024/02/22 03:36:21;;;;;;;12.43;5.43;;;;;;;6.50;100.00;100124.13;5093846;28;20420;-45
2024/02/22 03:38:53;;;;;;;12.43;5.88;;;;;;;6.56;100.00;100111.47;5093844;28;20048;-46
2024/02/22 03:41:25;;;;;;;12.10;5.45;;;;;;;6.60;100.00;100106.88;5095264;28;20040;-45
2024/02/22 03:43:53;;;;;;;12.68;6.22;;;;;;;6.57;100.00;100107.03;5096498;28;20133;-45
2024/02/22 03:46:21;;;;;;;14.80;5.40;;;;;;;6.50;100.00;100100.28;5094178;28;20055;-45
2024/02/22 03:48:50;;;;;;;15.77;6.05;;;;;;;6.49;100.00;100099.44;5093676;28;20132;-44
2024/02/22 03:51:18;;;;;;;13.32;5.60;;;;;;;6.59;99.95;100105.16;5093554;28;20048;-44
2024/02/22 03:53:48;;;;;;;14.88;5.75;;;;;;;6.57;99.30;100099.94;5093597;28;20079;-45
2024/02/22 03:56:16;;;;;;;12.57;5.57;;;;;;;6.54;99.75;100104.50;5093405;28;20101;-43
2024/02/22 03:58:45;;;;;;;13.57;6.07;;;;;;;6.54;98.39;100107.16;5093371;28;20063;-46
2024/02/22 04:01:14;;;;;;;14.95;5.57;;;;;;;6.65;97.56;100104.00;5093602;28;20044;-44
2024/02/22 04:03:43;;;;;;;11.10;5.93;;;;;;;6.59;97.84;100098.06;5093169;28;20052;-45
2024/02/22 04:06:12;;;;;;;14.85;6.72;;;;;;;6.45;98.78;100084.56;5093456;28;20048;-45
2024/02/22 04:08:40;;;;;;;13.48;6.05;;;;;;;6.52;98.17;100082.50;5093356;28;20091;-45
2024/02/22 04:11:10;;;;;;;17.35;6.65;;;;;;;6.36;99.15;100081.50;5093067;28;20044;-44
2024/02/22 04:13:38;;;;;;;13.57;5.45;;;;;;;6.44;98.97;100076.72;5093144;28;20048;-43
2024/02/22 04:16:07;;;;;;;12.05;6.40;;;;;;;6.48;98.96;100080.94;5093239;28;20155;-45
2024/02/22 04:18:36;;;;;;;13.93;6.03;;;;;;;6.42;99.66;100075.91;5093005;28;20048;-44
2024/02/22 04:21:05;;;;;;;13.98;6.55;;;;;;;6.47;99.17;100066.00;5093148;28;20127;-48
2024/02/22 04:23:35;;;;;;;12.77;5.43;;;;;;;6.51;98.47;100067.56;5093111;28;20048;-44
2024/02/22 04:26:03;;;;;;;12.00;5.88;;;;;;;6.51;98.18;100070.19;5093176;28;20055;-43
2024/02/22 04:28:33;;;;;;;13.82;6.10;;;;;;;6.48;98.51;100065.91;5093067;28;20098;-44
2024/02/22 04:31:03;;;;;;;17.77;7.10;;;;;;;6.43;97.84;100062.59;5092922;28;20048;-45
2024/02/22 04:33:32;;;;;;;12.60;5.60;;;;;;;6.51;98.42;100067.56;5092035;28;20105;-44
2024/02/22 04:36:01;;;;;;;13.48;6.05;;;;;;;6.42;99.25;100065.31;5092576;28;20048;-46
2024/02/22 04:38:29;;;;;;;18.23;6.32;;;;;;;6.49;99.38;100061.47;5092711;28;20079;-46
2024/02/22 04:40:58;;;;;;;14.48;6.10;;;;;;;6.60;98.62;100061.81;5092943;28;20425;-44
2024/02/22 04:43:26;;;;;;;12.30;5.78;;;;;;;6.64;97.61;100049.28;5092767;28;20055;-45
2024/02/22 04:45:56;;;;;;;15.38;6.00;;;;;;;6.46;98.50;100051.84;5092632;28;20363;-44
2024/02/22 04:48:24;;;;;;;13.77;6.35;;;;;;;6.46;99.26;100054.50;5092421;28;20040;-44
2024/02/22 04:50:53;;;;;;;12.70;5.93;;;;;;;6.42;100.00;100052.06;5092420;28;20478;-45
2024/02/22 04:53:21;;;;;;;12.15;6.15;;;;;;;6.47;99.99;100044.78;5092152;28;20048;-44
2024/02/22 04:55:50;;;;;;;15.40;6.20;;;;;;;6.47;98.74;100042.13;5092609;28;20455;-45
2024/02/22 04:58:18;;;;;;;14.05;6.43;;;;;;;6.37;99.73;100040.81;5092535;28;20048;-46
2024/02/22 05:00:46;;;;;;;11.85;6.13;;;;;;;6.35;99.76;100032.94;5092657;28;20113;-45
2024/02/22 05:03:16;;;;;;;15.77;7.13;;;;;;;6.29;100.00;100036.75;5093452;28;20062;-45
2024/02/22 05:05:44;;;;;;;12.25;6.38;;;;;;;6.22;100.00;100032.66;5095028;28;20135;-46
2024/02/22 05:08:12;;;;;;;17.33;6.50;;;;;;;6.33;100.00;100032.16;5091868;28;20044;-44
2024/02/22 05:10:40;;;;;;;12.68;6.40;;;;;;;6.41;100.00;100026.53;5091774;28;20062;-43
2024/02/22 05:13:09;;;;;;;14.02;6.70;;;;;;;6.54;100.00;100032.94;5092114;28;20093;-44
2024/02/22 05:15:37;;;;;;;14.82;6.78;;;;;;;6.39;99.84;100029.25;5092119;28;20105;-44
2024/02/22 05:18:06;;;;;;;16.60;6.60;;;;;;;6.31;100.00;100024.28;5091951;28;20051;-43
2024/02/22 05:20:37;;;;;;;12.57;6.47;;;;;;;6.36;100.00;100020.56;5091819;28;20048;-44
2024/02/22 05:23:07;;;;;;;16.30;7.28;;;;;;;6.26;100.00;100022.78;5092190;28;20052;-46
2024/02/22 05:25:35;;;;;;;15.00;7.05;;;;;;;6.26;100.00;100017.47;5091724;28;20137;-46
2024/02/22 05:28:03;;;;;;;14.55;6.25;;;;;;;6.36;100.00;100023.22;5091682;28;20507;-48
2024/02/22 05:30:32;;;;;;;14.60;6.32;;;;;;;6.36;100.00;100025.84;5091590;28;20048;-45
2024/02/22 05:33:00;;;;;;;16.75;7.75;;;;;;;6.32;100.00;100015.41;5091669;28;20039;-45
2024/02/22 05:35:29;;;;;;;13.77;6.47;;;;;;;6.31;100.00;100011.06;5091770;28;20433;-45
2024/02/22 05:37:58;;;;;;;14.35;6.82;;;;;;;6.24;100.00;100008.75;5091766;28;20101;-45
2024/02/22 05:40:27;;;;;;;17.50;6.95;;;;;;;6.38;100.00;100013.44;5091445;28;20143;-45
2024/02/22 05:42:55;;;;;;;15.10;7.50;;;;;;;6.40;100.00;100003.59;5091192;28;20040;-45
2024/02/22 05:45:34;;;;;;;13.85;6.82;;;;;;;6.31;100.00;100000.44;5091213;28;20048;-44
2024/02/22 05:48:03;;;;;;;12.85;7.13;;;;;;;6.46;100.00;100000.66;5091183;28;20105;-45
2024/02/22 05:50:32;;;;;;;16.88;6.97;;;;;;;6.51;99.78;99996.88;5091231;28;20112;-44
2024/02/22 05:53:02;;;;;;;14.45;6.97;;;;;;;6.49;99.74;99995.22;5090830;28;20056;-45
2024/02/22 05:55:30;;;;;;;13.73;6.43;;;;;;;6.49;99.18;99992.56;5090975;28;20055;-45
2024/02/22 05:57:58;;;;;;;17.30;7.57;;;;;;;6.47;100.00;99989.16;5091026;28;20052;-43
2024/02/22 06:00:26;;;;;;;14.07;7.25;;;;;;;6.50;99.14;99989.00;5091059;28;20051;-45
2024/02/22 06:02:55;;;;;;;15.68;7.30;;;;;;;6.53;99.26;99987.03;5091040;28;20040;-44
2024/02/22 06:05:23;;;;;;;15.57;7.65;;;;;;;6.58;98.78;99981.53;5091042;28;20052;-44
2024/02/22 06:07:52;;;;;;;14.32;7.28;;;;;;;6.61;98.80;99984.03;5091132;28;20040;-45
2024/02/22 06:10:21;;;;;;;18.77;7.78;;;;;;;6.70;98.46;99983.59;5090714;28;20044;-45
2024/02/22 06:12:50;;;;;;;17.33;6.72;;;;;;;6.75;96.86;99992.16;5091205;28;20052;-45
2024/02/22 06:15:18;;;;;;;17.30;7.63;;;;;;;6.76;97.26;99985.97;5090886;28;20059;-44
2024/02/22 06:17:46;;;;;;;15.65;6.93;;;;;;;6.79;97.14;99984.94;5090873;28;20052;-45
2024/02/22 06:20:15;;;;;;;14.77;7.00;;;;;;;6.89;96.57;99981.75;5090695;28;20359;-44
2024/02/22 06:22:44;;;;;;;15.80;7.95;;;;;;;6.92;95.36;99979.88;5090595;28;20126;-46
2024/02/22 06:25:13;;;;;;;17.35;7.22;;;;;;;6.89;95.52;99978.25;5090291;28;20058;-45
2024/02/22 06:27:44;;;;;;;17.65;7.68;;;;;;;6.87;96.06;99978.31;5090425;28;20095;-45
2024/02/22 06:30:14;;;;;;;23.38;11.05;;;;;;;6.82;97.56;99975.03;5090795;28;20040;-45
2024/02/22 06:32:43;;;;;;;15.15;7.18;;;;;;;6.91;96.17;99972.88;5090790;28;20086;-46
2024/02/22 06:35:12;;;;;;;16.90;7.57;;;;;;;6.83;96.76;99971.44;5090741;28;20044;-48
2024/02/22 06:37:40;;;;;;;18.35;8.15;;;;;;;6.73;97.26;99967.53;5090641;28;20127;-46
2024/02/22 06:40:10;;;;;;;16.08;7.95;;;;;;;6.71;97.34;99960.59;5090819;28;20080;-46
2024/02/22 06:42:39;;;;;;;18.98;7.78;;;;;;;6.77;96.90;99960.31;5090293;28;20110;-45
2024/02/22 06:45:09;;;;;;;17.25;8.15;;;;;;;6.89;96.15;99955.25;5090504;28;20053;-45
2024/02/22 06:47:38;;;;;;;13.10;7.50;;;;;;;6.87;96.21;99957.13;5090632;28;20044;-45
2024/02/22 06:50:07;;;;;;;17.23;7.75;;;;;;;6.91;96.35;99952.50;5090186;28;20044;-44
2024/02/22 06:52:36;;;;;;;17.63;7.53;;;;;;;7.05;94.86;99952.69;5090821;28;20084;-47
2024/02/22 06:55:07;;;;;;;15.77;7.18;;;;;;;7.07;93.06;99952.63;5093581;28;20055;-45
2024/02/22 06:57:35;;;;;;;18.08;7.22;;;;;;;7.11;94.47;99943.56;5092019;28;20091;-46
2024/02/22 07:00:09;;;;;;;15.70;7.03;;;;;;;7.06;93.99;99945.59;5094234;28;20048;-46
2024/02/22 07:02:39;;;;;;;14.88;7.10;;;;;;;7.07;94.10;99942.00;5094323;28;20048;-44
2024/02/22 07:05:08;;;;;;;18.88;7.13;;;;;;;7.04;94.53;99935.03;5094227;28;20471;-45
2024/02/22 07:07:36;;;;;;;13.55;6.95;;;;;;;7.04;94.23;99927.09;5094286;28;20055;-44
2024/02/22 07:10:06;;;;;;;15.63;6.72;;;;;;;7.07;92.91;99931.41;5094173;28;20097;-48
2024/02/22 07:12:34;;;;;;;14.70;6.50;;;;;;;7.13;91.44;99923.09;5094299;28;20121;-45
2024/02/22 07:15:03;;;;;;;14.98;6.93;;;;;;;7.28;90.97;99918.81;5094065;28;20075;-44
2024/02/22 07:17:33;;;;;;;15.45;7.13;;;;;;;7.31;90.64;99916.00;5094754;28;20127;-44
2024/02/22 07:20:01;;;;;;;14.48;6.88;;;;;;;7.36;90.35;99911.31;5093993;28;20514;-46
2024/02/22 07:22:29;;;;;;;14.68;6.20;;;;;;;7.43;88.43;99916.25;5093747;28;20408;-45
2024/02/22 07:24:58;;;;;;;12.00;6.43;;;;;;;7.52;87.86;99916.66;5093503;28;20040;-45
2024/02/22 07:27:27;;;;;;;11.52;6.10;;;;;;;7.55;88.15;99913.88;5093676;28;20044;-44
2024/02/22 07:29:55;;;;;;;14.27;6.25;;;;;;;7.60;87.50;99910.00;5093797;28;20108;-45
2024/02/22 07:32:23;;;;;;;12.73;6.35;;;;;;;7.61;87.58;99906.41;5094136;28;20196;-46
2024/02/22 07:34:53;;;;;;;13.40;6.30;;;;;;;7.69;87.15;99893.59;5093737;28;20048;-45
2024/02/22 07:37:22;;;;;;;14.02;6.50;;;;;;;7.74;86.44;99903.97;5093453;28;20063;-45
2024/02/22 07:39:50;;;;;;;12.57;6.25;;;;;;;7.73;86.11;99895.16;5093552;28;20048;-43
2024/02/22 07:42:18;;;;;;;12.07;6.10;;;;;;;7.69;86.41;99890.94;5093358;28;20083;-46
2024/02/22 07:44:46;;;;;;;12.48;6.05;;;;;;;7.84;85.25;99889.25;5093672;28;20048;-44
2024/02/22 07:47:15;;;;;;;13.10;6.00;;;;;;;7.76;85.27;99878.19;5093636;28;20059;-45
2024/02/22 07:49:44;;;;;;;17.42;6.57;;;;;;;7.84;84.81;99883.97;5093505;28;20135;-45
2024/02/22 07:52:14;;;;;;;13.00;6.25;;;;;;;7.81;84.78;99876.13;5093074;28;20481;-45
2024/02/22 07:54:46;;;;;;;15.98;6.55;;;;;;;7.88;84.06;99879.31;5092725;28;20051;-44
2024/02/22 07:57:14;;;;;;;12.63;6.03;;;;;;;7.93;83.57;99866.66;5093484;28;20053;-44
2024/02/22 07:59:43;;;;;;;14.20;5.95;;;;;;;8.00;83.15;99866.22;5093533;28;20121;-44
2024/02/22 08:02:11;;;;;;;11.57;5.55;;;;;;;8.01;82.33;99861.78;5093520;28;20067;-45
2024/02/22 08:04:39;;;;;;;15.60;6.07;;;;;;;8.02;82.13;99856.38;5093302;28;20044;-43
2024/02/22 08:07:08;;;;;;;12.45;5.82;;;;;;;8.05;82.16;99852.69;5092885;28;20075;-43
2024/02/22 08:09:37;;;;;;;11.45;5.82;;;;;;;8.08;81.87;99844.53;5091654;28;20127;-44
2024/02/22 08:12:06;;;;;;;17.98;6.50;;;;;;;8.16;81.80;99844.97;5093342;28;20063;-47
2024/02/22 08:14:34;;;;;;;15.65;6.10;;;;;;;8.25;81.73;99841.78;5092869;28;20052;-45
2024/02/22 08:17:03;;;;;;;12.80;6.03;;;;;;;8.28;80.82;99838.09;5092798;28;20127;-44
2024/02/22 08:19:31;;;;;;;19.35;7.07;;;;;;;8.28;80.63;99827.47;5092647;28;20093;-45
2024/02/22 08:22:00;;;;;;;12.57;5.53;;;;;;;8.39;80.06;99827.72;5092473;28;20040;-44
2024/02/22 08:24:28;;;;;;;12.23;5.85;;;;;;;8.51;78.96;99824.38;5092569;28;20151;-46
2024/02/22 08:26:58;;;;;;;16.17;5.38;;;;;;;8.56;78.60;99819.63;5092779;28;20048;-44
2024/02/22 08:29:27;;;;;;;11.35;4.80;;;;;;;8.61;78.11;99814.06;5092723;28;20056;-47
2024/02/22 08:31:55;;;;;;;12.82;6.28;;;;;;;8.64;77.68;99810.34;5092446;28;20055;-45
2024/02/22 08:34:24;;;;;;;16.10;5.45;;;;;;;8.73;77.31;99812.47;5092244;28;20044;-46
2024/02/22 08:36:52;;;;;;;11.65;5.55;;;;;;;8.81;77.18;99810.22;5092172;28;20040;-43
2024/02/22 08:39:20;;;;;;;11.10;5.28;;;;;;;8.82;77.25;99798.63;5092228;28;20072;-45
2024/02/22 08:41:48;;;;;;;12.02;5.22;;;;;;;8.91;76.42;99805.19;5091307;28;20411;-45
2024/02/22 08:44:18;;;;;;;12.70;5.82;;;;;;;8.94;75.74;99800.53;5092046;28;20055;-44
2024/02/22 08:46:46;;;;;;;11.48;5.25;;;;;;;8.97;76.57;99795.03;5092008;28;20139;-45
2024/02/22 08:49:14;;;;;;;9.77;5.30;;;;;;;8.94;75.99;99800.53;5092081;28;20075;-44
2024/02/22 08:51:44;;;;;;;12.90;5.78;;;;;;;9.04;76.69;99790.19;5092072;28;20048;-45
2024/02/22 08:54:12;;;;;;;12.07;5.30;;;;;;;9.02;76.44;99787.63;5091572;28;20070;-45
2024/02/22 08:56:41;;;;;;;9.88;5.30;;;;;;;9.09;75.77;99785.47;5092213;28;20071;-46
2024/02/22 08:59:09;;;;;;;9.98;5.70;;;;;;;9.15;75.37;99790.38;5091870;28;20434;-47
2024/02/22 09:01:39;;;;;;;12.40;5.70;;;;;;;9.22;75.45;99788.22;5091859;28;20043;-45
2024/02/22 09:04:07;;;;;;;11.52;5.03;;;;;;;9.24;74.87;99775.66;5091633;28;20571;-45
2024/02/22 09:06:36;;;;;;;16.60;5.35;;;;;;;9.31;75.05;99774.34;5092597;28;20130;-45
2024/02/22 09:09:07;;;;;;;15.70;6.00;;;;;;;9.35;75.67;99759.88;5094802;28;20105;-46
2024/02/22 09:11:35;;;;;;;16.33;6.90;;;;;;;9.54;74.59;99751.59;5091920;28;20135;-44
2024/02/22 09:14:03;;;;;;;15.68;6.20;;;;;;;9.59;73.16;99749.50;5091673;28;20078;-45
2024/02/22 09:16:32;;;;;;;13.82;5.82;;;;;;;9.60;73.69;99757.38;5091716;28;20078;-43
2024/02/22 09:19:01;;;;;;;13.35;5.65;;;;;;;9.68;73.02;99749.75;5091667;28;20098;-45
2024/02/22 09:21:30;;;;;;;13.77;5.32;;;;;;;9.70;72.71;99741.66;5091405;28;20048;-45
2024/02/22 09:23:58;;;;;;;13.05;5.70;;;;;;;9.76;72.49;99735.97;5091337;28;20061;-45
2024/02/22 09:26:28;;;;;;;9.93;5.32;;;;;;;9.85;71.84;99729.19;5091405;28;20461;-48
2024/02/22 09:28:57;;;;;;;13.02;5.72;;;;;;;10.05;71.94;99728.72;5091297;28;20071;-46
2024/02/22 09:31:25;;;;;;;10.07;5.18;;;;;;;10.25;71.70;99722.94;5091489;28;20161;-44
2024/02/22 09:33:53;;;;;;;11.40;5.70;;;;;;;10.34;71.06;99712.63;5091500;28;20044;-45
2024/02/22 09:36:24;;;;;;;11.55;5.35;;;;;;;10.54;69.53;99717.44;5091114;28;20055;-44
2024/02/22 09:38:52;;;;;;;12.27;5.32;;;;;;;10.62;68.03;99708.94;5091095;28;20047;-43
2024/02/22 09:41:21;;;;;;;10.00;5.32;;;;;;;10.79;68.25;99703.25;5090942;28;20461;-44
2024/02/22 09:43:51;;;;;;;12.73;5.30;;;;;;;10.81;68.98;99699.53;5090677;28;20522;-44
2024/02/22 09:46:21;;;;;;;10.98;5.15;;;;;;;10.94;67.46;99685.34;5091060;28;20079;-44
2024/02/22 09:48:51;;;;;;;13.27;5.60;;;;;;;10.99;67.16;99678.69;5091039;28;20133;-45
2024/02/22 09:51:21;;;;;;;10.73;4.80;;;;;;;11.14;66.44;99682.94;5090789;28;20482;-44
2024/02/22 09:53:53;;;;;;;9.73;5.10;;;;;;;11.32;65.14;99672.78;5090495;28;20561;-44
2024/02/22 09:56:22;;;;;;;11.23;5.35;;;;;;;11.35;64.64;99672.53;5091221;28;20044;-44
2024/02/22 09:58:50;;;;;;;13.20;5.35;;;;;;;11.46;64.37;99653.91;5090653;28;20055;-43
2024/02/22 10:01:20;;;;;;;13.32;5.28;;;;;;;11.58;64.89;99652.19;5090983;28;20350;-43
2024/02/22 10:03:48;;;;;;;12.18;4.95;;;;;;;11.89;63.78;99637.41;5090769;28;20138;-50
2024/02/22 10:06:17;;;;;;;9.57;5.40;;;;;;;11.89;63.11;99639.25;5090651;28;20047;-44
2024/02/22 10:08:47;;;;;;;10.38;5.28;;;;;;;12.01;62.58;99632.97;5091057;28;20063;-44
2024/02/22 10:11:20;;;;;;;10.40;4.93;;;;;;;11.91;62.23;99626.59;5090904;28;20141;-44
2024/02/22 10:13:49;;;;;;;10.70;4.75;;;;;;;11.88;61.76;99625.03;5090769;28;20444;-44
2024/02/22 10:16:17;;;;;;;10.45;5.18;;;;;;;11.95;61.13;99612.88;5090637;28;20044;-44
2024/02/22 10:18:46;;;;;;;7.88;4.38;;;;;;;12.12;60.42;99616.09;5088872;28;20052;-45
2024/02/22 10:21:17;;;;;;;12.55;5.10;;;;;;;12.26;60.34;99613.22;5089141;28;20051;-45
2024/02/22 10:23:46;;;;;;;10.20;5.07;;;;;;;12.39;59.87;99589.06;5087168;28;20056;-44
2024/02/22 10:26:15;;;;;;;9.00;4.68;;;;;;;12.33;58.69;99575.19;5089862;28;20048;-43
2024/02/22 10:28:53;;;;;;;9.15;4.35;;;;;;;12.32;60.07;99577.97;5093529;28;20044;-44
2024/02/22 10:31:22;;;;;;;8.48;4.03;;;;;;;12.41;58.35;99568.38;5093391;28;21553;-45
2024/02/22 10:33:52;;;;;;;8.63;4.03;;;;;;;12.37;57.16;99566.94;5098212;28;20072;-45
2024/02/22 10:36:21;;;;;;;8.90;4.47;;;;;;;12.43;57.18;99545.88;5098987;28;20123;-44
2024/02/22 10:38:51;;;;;;;9.27;3.90;;;;;;;12.38;57.76;99549.91;5088410;28;20129;-45
2024/02/22 10:41:21;;;;;;;10.38;4.70;;;;;;;12.37;58.61;99549.06;5099625;28;20404;-46
2024/02/22 10:43:53;;;;;;;7.30;4.30;;;;;;;12.46;58.54;99543.00;5092238;28;20482;-44
2024/02/22 10:46:26;;;;;;;8.40;4.35;;;;;;;12.56;57.15;99543.97;5086979;28;20040;-44
2024/02/22 10:48:59;;;;;;;11.13;4.38;;;;;;;12.59;57.16;99538.34;5090688;28;20044;-45
2024/02/22 10:51:30;;;;;;;8.65;4.10;;;;;;;12.76;56.89;99529.00;5097031;28;20055;-43
2024/02/22 10:53:59;;;;;;;10.20;3.95;;;;;;;12.83;56.87;99534.66;5090390;28;20055;-44
2024/02/22 10:56:32;;;;;;;8.00;4.00;;;;;;;12.87;56.03;99514.72;5087673;28;20055;-46
2024/02/22 10:59:04;;;;;;;;;;;;;;;12.94;55.91;99532.00;5093848;28;20125;-45
2024/02/22 11:01:33;;;;;;;9.55;3.78;;;;;;;13.06;55.39;99520.28;5087987;28;19920;-46
2024/02/22 11:04:03;;;;;;;10.23;4.28;;;;;;;13.22;54.97;99511.00;5089809;28;20079;-45
2024/02/22 11:06:38;;;;;;;11.07;4.00;;;;;;;13.39;54.81;99497.91;5087340;28;20036;-43
2024/02/22 11:09:17;;;;;;;6.93;3.95;;;;;;;13.46;53.86;99490.22;5089113;28;20047;-45
2024/02/22 11:11:48;;;;;;;9.82;4.20;;;;;;;13.49;54.01;99479.25;5089586;28;20044;-45
2024/02/22 11:14:29;;;;;;;8.13;4.47;;;;;;;13.41;53.59;99481.72;5089292;28;20047;-45
2024/02/22 11:17:05;;;;;;;9.65;4.25;;;;;;;13.41;54.26;99487.94;5088568;28;20070;-43
2024/02/22 11:19:34;;;;;;;12.93;4.35;;;;;;;13.36;54.20;99494.66;5089269;28;20044;-44
2024/02/22 11:22:13;;;;;;;13.77;4.07;;;;;;;13.31;54.52;99496.84;5090287;28;20124;-44
2024/02/22 11:24:43;;;;;;;11.38;4.90;;;;;;;13.27;54.77;99488.22;5088774;28;20130;-47
2024/02/22 11:27:17;;;;;;;10.27;4.35;;;;;;;13.26;55.49;99493.72;5088310;28;20159;-45
2024/02/22 11:29:46;;;;;;;;;;;;;;;13.28;54.96;99491.75;5090302;28;20081;-46
2024/02/22 11:32:15;;;;;;;9.93;4.32;;;;;;;13.15;55.61;99492.75;5089620;28;20435;-48
2024/02/22 11:34:53;;;;;;;13.93;5.05;;;;;;;13.12;55.72;99479.63;5089652;28;20400;-46
2024/02/22 11:37:22;;;;;;;9.30;4.65;;;;;;;13.16;56.04;99478.38;5089761;28;20123;-45